sensor_id;sensor_type;location;lat;lon;timestamp;temperature;humidity
53653;DHT22;39553;52.954;5.932;2022-12-29T00:02:19;10.00;99.90
53653;DHT22;39553;52.954;5.932;2022-12-29T00:04:45;10.10;99.90
53653;DHT22;39553;52.954;5.932;2022-12-29T00:07:11;10.10;99.90
53653;DHT22;39553;52.954;5.932;2022-12-29T00:09:37;10.10;99.90
53653;DHT22;39553;52.954;5.932;2022-12-29T00:12:04;10.20;99.90
53653;DHT22;39553;52.954;5.932;2022-12-29T00:14:31;10.20;99.90
53653;DHT22;39553;52.954;5.932;2022-12-29T00:17:15;10.20;99.90
53653;DHT22;39553;52.954;5.932;2022-12-29T00:19:41;10.30;99.90
53653;DHT22;39553;52.954;5.932;2022-12-29T00:22:28;10.20;99.90
53653;DHT22;39553;52.954;5.932;2022-12-29T00:25:13;10.30;99.90
53653;DHT22;39553;52.954;5.932;2022-12-29T00:28:01;10.30;99.90
53653;DHT22;39553;52.954;5.932;2022-12-29T00:30:45;10.20;99.90
53653;DHT22;39553;52.954;5.932;2022-12-29T00:33:33;10.30;99.90
53653;DHT22;39553;52.954;5.932;2022-12-29T00:36:19;10.30;99.90
53653;DHT22;39553;52.954;5.932;2022-12-29T00:38:53;10.30;99.90
53653;DHT22;39553;52.954;5.932;2022-12-29T00:41:39;10.80;99.90
53653;DHT22;39553;52.954;5.932;2022-12-29T00:44:24;8.80;99.90
53653;DHT22;39553;52.954;5.932;2022-12-29T00:46:50;10.30;99.90
53653;DHT22;39553;52.954;5.932;2022-12-29T00:49:16;10.40;99.90
53653;DHT22;39553;52.954;5.932;2022-12-29T00:51:59;10.40;99.90
53653;DHT22;39553;52.954;5.932;2022-12-29T00:54:26;10.50;99.90
53653;DHT22;39553;52.954;5.932;2022-12-29T00:56:52;10.50;99.90
53653;DHT22;39553;52.954;5.932;2022-12-29T00:59:19;9.80;99.90
53653;DHT22;39553;52.954;5.932;2022-12-29T01:01:46;10.50;99.90
53653;DHT22;39553;52.954;5.932;2022-12-29T01:04:18;10.50;99.90
53653;DHT22;39553;52.954;5.932;2022-12-29T01:06:44;10.50;99.90
53653;DHT22;39553;52.954;5.932;2022-12-29T01:09:10;10.40;99.90
53653;DHT22;39553;52.954;5.932;2022-12-29T01:11:55;10.40;99.90
53653;DHT22;39553;52.954;5.932;2022-12-29T01:14:21;10.40;99.90
53653;DHT22;39553;52.954;5.932;2022-12-29T01:16:48;10.40;99.90
53653;DHT22;39553;52.954;5.932;2022-12-29T01:19:14;10.30;99.90
53653;DHT22;39553;52.954;5.932;2022-12-29T01:21:41;10.20;99.90
53653;DHT22;39553;52.954;5.932;2022-12-29T01:24:07;10.20;99.90
53653;DHT22;39553;52.954;5.932;2022-12-29T01:26:33;10.10;99.90
53653;DHT22;39553;52.954;5.932;2022-12-29T01:28:58;10.10;99.90
53653;DHT22;39553;52.954;5.932;2022-12-29T01:31:24;10.10;99.90
53653;DHT22;39553;52.954;5.932;2022-12-29T01:33:51;10.00;99.90
53653;DHT22;39553;52.954;5.932;2022-12-29T01:36:18;9.60;99.90
53653;DHT22;39553;52.954;5.932;2022-12-29T01:38:44;10.00;99.90
53653;DHT22;39553;52.954;5.932;2022-12-29T01:41:12;10.00;99.90
53653;DHT22;39553;52.954;5.932;2022-12-29T01:43:53;10.00;99.90
53653;DHT22;39553;52.954;5.932;2022-12-29T01:46:25;10.00;99.90
53653;DHT22;39553;52.954;5.932;2022-12-29T01:51:39;10.10;99.90
53653;DHT22;39553;52.954;5.932;2022-12-29T01:54:13;10.10;99.90
53653;DHT22;39553;52.954;5.932;2022-12-29T01:56:41;10.20;99.90
53653;DHT22;39553;52.954;5.932;2022-12-29T01:59:11;10.20;99.90
53653;DHT22;39553;52.954;5.932;2022-12-29T02:01:40;10.20;99.90
53653;DHT22;39553;52.954;5.932;2022-12-29T02:04:08;10.30;99.90
53653;DHT22;39553;52.954;5.932;2022-12-29T02:06:41;10.40;99.90
53653;DHT22;39553;52.954;5.932;2022-12-29T02:09:07;10.50;99.90
53653;DHT22;39553;52.954;5.932;2022-12-29T02:11:34;10.50;99.90
53653;DHT22;39553;52.954;5.932;2022-12-29T02:14:12;10.50;99.90
53653;DHT22;39553;52.954;5.932;2022-12-29T02:30:42;10.60;99.90
53653;DHT22;39553;52.954;5.932;2022-12-29T02:36:29;10.60;99.90
53653;DHT22;39553;52.954;5.932;2022-12-29T02:39:05;10.60;99.90
53653;DHT22;39553;52.954;5.932;2022-12-29T02:45:07;10.50;99.90
53653;DHT22;39553;52.954;5.932;2022-12-29T02:47:36;10.40;99.90
53653;DHT22;39553;52.954;5.932;2022-12-29T02:50:08;11.80;99.90
53653;DHT22;39553;52.954;5.932;2022-12-29T02:52:46;10.50;99.90
53653;DHT22;39553;52.954;5.932;2022-12-29T02:55:13;10.40;99.90
53653;DHT22;39553;52.954;5.932;2022-12-29T02:57:39;10.40;99.90
53653;DHT22;39553;52.954;5.932;2022-12-29T03:00:14;10.40;99.90
53653;DHT22;39553;52.954;5.932;2022-12-29T03:08:28;10.20;99.90
53653;DHT22;39553;52.954;5.932;2022-12-29T03:11:05;10.10;99.90
53653;DHT22;39553;52.954;5.932;2022-12-29T03:13:43;10.00;99.90
53653;DHT22;39553;52.954;5.932;2022-12-29T03:16:45;10.00;99.90
53653;DHT22;39553;52.954;5.932;2022-12-29T03:19:15;9.90;99.90
53653;DHT22;39553;52.954;5.932;2022-12-29T03:21:54;9.90;99.90
53653;DHT22;39553;52.954;5.932;2022-12-29T03:24:43;9.90;99.90
53653;DHT22;39553;52.954;5.932;2022-12-29T03:27:15;9.90;99.90
53653;DHT22;39553;52.954;5.932;2022-12-29T03:29:46;9.90;99.90
53653;DHT22;39553;52.954;5.932;2022-12-29T03:32:20;9.80;99.90
53653;DHT22;39553;52.954;5.932;2022-12-29T03:34:49;9.80;99.90
53653;DHT22;39553;52.954;5.932;2022-12-29T03:37:18;9.80;99.90
53653;DHT22;39553;52.954;5.932;2022-12-29T03:39:46;9.80;99.90
53653;DHT22;39553;52.954;5.932;2022-12-29T03:42:19;9.80;99.90
53653;DHT22;39553;52.954;5.932;2022-12-29T03:44:47;9.90;99.90
53653;DHT22;39553;52.954;5.932;2022-12-29T03:47:14;10.00;99.90
53653;DHT22;39553;52.954;5.932;2022-12-29T03:49:40;10.00;99.90
53653;DHT22;39553;52.954;5.932;2022-12-29T03:52:06;10.00;99.90
53653;DHT22;39553;52.954;5.932;2022-12-29T03:54:32;10.00;99.90
53653;DHT22;39553;52.954;5.932;2022-12-29T03:56:58;10.00;99.90
53653;DHT22;39553;52.954;5.932;2022-12-29T03:59:24;10.10;99.90
53653;DHT22;39553;52.954;5.932;2022-12-29T04:01:50;10.10;99.90
53653;DHT22;39553;52.954;5.932;2022-12-29T04:04:15;10.10;99.90
53653;DHT22;39553;52.954;5.932;2022-12-29T04:06:41;10.00;99.90
53653;DHT22;39553;52.954;5.932;2022-12-29T04:09:07;9.90;99.90
53653;DHT22;39553;52.954;5.932;2022-12-29T04:11:34;9.90;99.90
53653;DHT22;39553;52.954;5.932;2022-12-29T04:14:00;10.30;99.90
53653;DHT22;39553;52.954;5.932;2022-12-29T04:16:26;9.70;99.90
53653;DHT22;39553;52.954;5.932;2022-12-29T04:18:52;9.60;99.90
53653;DHT22;39553;52.954;5.932;2022-12-29T04:21:17;9.50;99.90
53653;DHT22;39553;52.954;5.932;2022-12-29T04:23:43;10.60;99.90
53653;DHT22;39553;52.954;5.932;2022-12-29T04:26:09;9.40;99.90
53653;DHT22;39553;52.954;5.932;2022-12-29T04:28:36;9.40;99.90
53653;DHT22;39553;52.954;5.932;2022-12-29T04:31:03;9.30;99.90
53653;DHT22;39553;52.954;5.932;2022-12-29T04:33:29;9.30;99.90
53653;DHT22;39553;52.954;5.932;2022-12-29T04:35:55;9.40;99.90
53653;DHT22;39553;52.954;5.932;2022-12-29T04:38:22;9.40;99.90
53653;DHT22;39553;52.954;5.932;2022-12-29T04:40:49;9.80;99.90
53653;DHT22;39553;52.954;5.932;2022-12-29T04:43:15;9.30;99.90
53653;DHT22;39553;52.954;5.932;2022-12-29T04:45:47;9.30;99.90
53653;DHT22;39553;52.954;5.932;2022-12-29T04:48:13;9.30;99.90
53653;DHT22;39553;52.954;5.932;2022-12-29T04:50:40;9.20;99.90
53653;DHT22;39553;52.954;5.932;2022-12-29T04:53:06;9.10;99.90
53653;DHT22;39553;52.954;5.932;2022-12-29T04:55:32;9.10;99.90
53653;DHT22;39553;52.954;5.932;2022-12-29T04:57:58;9.00;99.90
53653;DHT22;39553;52.954;5.932;2022-12-29T05:00:23;9.00;99.90
53653;DHT22;39553;52.954;5.932;2022-12-29T05:02:49;9.00;99.90
53653;DHT22;39553;52.954;5.932;2022-12-29T05:05:15;9.00;99.90
53653;DHT22;39553;52.954;5.932;2022-12-29T05:07:41;8.90;99.90
53653;DHT22;39553;52.954;5.932;2022-12-29T05:10:08;9.00;99.90
53653;DHT22;39553;52.954;5.932;2022-12-29T05:12:35;9.00;99.90
53653;DHT22;39553;52.954;5.932;2022-12-29T05:15:01;9.00;99.90
53653;DHT22;39553;52.954;5.932;2022-12-29T05:17:29;9.00;99.90
53653;DHT22;39553;52.954;5.932;2022-12-29T05:19:54;9.00;99.90
53653;DHT22;39553;52.954;5.932;2022-12-29T05:22:20;9.50;99.90
53653;DHT22;39553;52.954;5.932;2022-12-29T05:24:49;9.10;99.90
53653;DHT22;39553;52.954;5.932;2022-12-29T05:27:15;9.10;99.90
53653;DHT22;39553;52.954;5.932;2022-12-29T05:29:41;9.10;99.90
53653;DHT22;39553;52.954;5.932;2022-12-29T05:32:06;9.90;99.90
53653;DHT22;39553;52.954;5.932;2022-12-29T05:34:32;9.00;99.90
53653;DHT22;39553;52.954;5.932;2022-12-29T05:36:58;9.10;99.90
53653;DHT22;39553;52.954;5.932;2022-12-29T05:39:23;9.20;99.90
53653;DHT22;39553;52.954;5.932;2022-12-29T05:41:49;9.20;99.90
53653;DHT22;39553;52.954;5.932;2022-12-29T05:44:15;9.20;99.90
53653;DHT22;39553;52.954;5.932;2022-12-29T05:46:41;9.10;99.90
53653;DHT22;39553;52.954;5.932;2022-12-29T05:49:06;9.10;99.90
53653;DHT22;39553;52.954;5.932;2022-12-29T05:51:32;9.10;99.90
53653;DHT22;39553;52.954;5.932;2022-12-29T05:53:58;9.10;99.90
53653;DHT22;39553;52.954;5.932;2022-12-29T05:56:24;9.10;99.90
53653;DHT22;39553;52.954;5.932;2022-12-29T05:58:50;9.20;99.90
53653;DHT22;39553;52.954;5.932;2022-12-29T06:01:15;9.20;99.90
53653;DHT22;39553;52.954;5.932;2022-12-29T06:03:41;9.30;99.90
53653;DHT22;39553;52.954;5.932;2022-12-29T06:06:07;9.30;99.90
53653;DHT22;39553;52.954;5.932;2022-12-29T06:08:33;9.30;99.90
53653;DHT22;39553;52.954;5.932;2022-12-29T06:10:58;9.30;99.90
53653;DHT22;39553;52.954;5.932;2022-12-29T06:13:24;9.20;99.90
53653;DHT22;39553;52.954;5.932;2022-12-29T06:15:50;9.20;99.90
53653;DHT22;39553;52.954;5.932;2022-12-29T06:18:16;9.10;99.90
53653;DHT22;39553;52.954;5.932;2022-12-29T06:20:42;9.20;99.90
53653;DHT22;39553;52.954;5.932;2022-12-29T06:23:08;9.40;99.90
53653;DHT22;39553;52.954;5.932;2022-12-29T06:25:34;9.20;99.90
53653;DHT22;39553;52.954;5.932;2022-12-29T06:28:02;9.10;99.90
53653;DHT22;39553;52.954;5.932;2022-12-29T06:30:28;9.10;99.90
53653;DHT22;39553;52.954;5.932;2022-12-29T06:32:54;9.10;99.90
53653;DHT22;39553;52.954;5.932;2022-12-29T06:35:20;9.00;99.90
53653;DHT22;39553;52.954;5.932;2022-12-29T06:37:48;9.30;99.90
53653;DHT22;39553;52.954;5.932;2022-12-29T06:40:14;9.40;99.90
53653;DHT22;39553;52.954;5.932;2022-12-29T06:42:39;9.00;99.90
53653;DHT22;39553;52.954;5.932;2022-12-29T06:45:06;9.00;99.90
53653;DHT22;39553;52.954;5.932;2022-12-29T06:47:33;9.00;99.90
53653;DHT22;39553;52.954;5.932;2022-12-29T06:50:00;9.00;99.90
53653;DHT22;39553;52.954;5.932;2022-12-29T06:52:26;9.20;99.90
53653;DHT22;39553;52.954;5.932;2022-12-29T06:54:51;9.00;99.90
53653;DHT22;39553;52.954;5.932;2022-12-29T06:57:17;9.00;99.90
53653;DHT22;39553;52.954;5.932;2022-12-29T06:59:43;9.10;99.90
53653;DHT22;39553;52.954;5.932;2022-12-29T07:02:12;9.10;99.90
53653;DHT22;39553;52.954;5.932;2022-12-29T07:04:40;8.70;99.90
53653;DHT22;39553;52.954;5.932;2022-12-29T07:07:06;9.10;99.90
53653;DHT22;39553;52.954;5.932;2022-12-29T07:09:32;9.10;99.90
53653;DHT22;39553;52.954;5.932;2022-12-29T07:11:57;9.50;99.90
53653;DHT22;39553;52.954;5.932;2022-12-29T07:14:23;9.10;99.90
53653;DHT22;39553;52.954;5.932;2022-12-29T07:16:49;9.80;99.90
53653;DHT22;39553;52.954;5.932;2022-12-29T07:19:15;9.10;99.90
53653;DHT22;39553;52.954;5.932;2022-12-29T07:21:40;9.10;99.90
53653;DHT22;39553;52.954;5.932;2022-12-29T07:24:07;9.10;99.90
53653;DHT22;39553;52.954;5.932;2022-12-29T07:26:33;9.20;99.90
53653;DHT22;39553;52.954;5.932;2022-12-29T07:29:00;9.20;99.90
53653;DHT22;39553;52.954;5.932;2022-12-29T07:31:26;9.20;99.90
53653;DHT22;39553;52.954;5.932;2022-12-29T07:33:52;9.20;99.90
53653;DHT22;39553;52.954;5.932;2022-12-29T07:36:18;9.20;99.90
53653;DHT22;39553;52.954;5.932;2022-12-29T07:38:44;9.20;99.90
53653;DHT22;39553;52.954;5.932;2022-12-29T07:41:10;9.30;99.90
53653;DHT22;39553;52.954;5.932;2022-12-29T07:43:35;9.30;99.90
53653;DHT22;39553;52.954;5.932;2022-12-29T07:46:01;9.30;99.90
53653;DHT22;39553;52.954;5.932;2022-12-29T07:48:27;9.30;99.90
53653;DHT22;39553;52.954;5.932;2022-12-29T07:50:53;9.30;99.90
53653;DHT22;39553;52.954;5.932;2022-12-29T07:53:19;9.30;99.90
53653;DHT22;39553;52.954;5.932;2022-12-29T07:55:45;9.30;99.90
53653;DHT22;39553;52.954;5.932;2022-12-29T07:58:11;9.20;99.90
53653;DHT22;39553;52.954;5.932;2022-12-29T08:00:38;9.20;99.90
53653;DHT22;39553;52.954;5.932;2022-12-29T08:03:04;9.20;99.90
53653;DHT22;39553;52.954;5.932;2022-12-29T08:05:31;9.20;99.90
53653;DHT22;39553;52.954;5.932;2022-12-29T08:07:57;9.20;99.90
53653;DHT22;39553;52.954;5.932;2022-12-29T08:10:23;9.20;99.90
53653;DHT22;39553;52.954;5.932;2022-12-29T08:12:49;9.20;99.90
53653;DHT22;39553;52.954;5.932;2022-12-29T08:15:15;9.20;99.90
53653;DHT22;39553;52.954;5.932;2022-12-29T08:17:42;9.20;99.90
53653;DHT22;39553;52.954;5.932;2022-12-29T08:20:08;9.30;99.90
53653;DHT22;39553;52.954;5.932;2022-12-29T08:22:34;9.20;99.90
53653;DHT22;39553;52.954;5.932;2022-12-29T08:25:00;9.20;99.90
53653;DHT22;39553;52.954;5.932;2022-12-29T08:27:26;9.20;99.90
53653;DHT22;39553;52.954;5.932;2022-12-29T08:29:52;9.30;99.90
53653;DHT22;39553;52.954;5.932;2022-12-29T08:32:18;9.30;99.90
53653;DHT22;39553;52.954;5.932;2022-12-29T08:34:44;9.30;99.90
53653;DHT22;39553;52.954;5.932;2022-12-29T08:37:09;9.30;99.90
53653;DHT22;39553;52.954;5.932;2022-12-29T08:39:35;9.30;99.90
53653;DHT22;39553;52.954;5.932;2022-12-29T08:42:01;9.40;99.90
53653;DHT22;39553;52.954;5.932;2022-12-29T08:44:27;9.40;99.90
53653;DHT22;39553;52.954;5.932;2022-12-29T08:46:52;9.90;99.90
53653;DHT22;39553;52.954;5.932;2022-12-29T08:49:18;9.50;99.90
53653;DHT22;39553;52.954;5.932;2022-12-29T08:51:44;9.50;99.90
53653;DHT22;39553;52.954;5.932;2022-12-29T08:54:11;9.40;99.90
53653;DHT22;39553;52.954;5.932;2022-12-29T08:56:39;9.40;99.90
53653;DHT22;39553;52.954;5.932;2022-12-29T08:59:05;9.20;99.90
53653;DHT22;39553;52.954;5.932;2022-12-29T09:01:32;9.10;99.90
53653;DHT22;39553;52.954;5.932;2022-12-29T09:04:03;9.00;99.90
53653;DHT22;39553;52.954;5.932;2022-12-29T09:06:29;9.00;99.90
53653;DHT22;39553;52.954;5.932;2022-12-29T09:08:56;9.00;99.90
53653;DHT22;39553;52.954;5.932;2022-12-29T09:11:23;9.00;99.90
53653;DHT22;39553;52.954;5.932;2022-12-29T09:13:50;9.10;99.90
53653;DHT22;39553;52.954;5.932;2022-12-29T09:16:17;9.10;99.90
53653;DHT22;39553;52.954;5.932;2022-12-29T09:18:44;9.20;99.90
53653;DHT22;39553;52.954;5.932;2022-12-29T09:21:10;9.20;99.90
53653;DHT22;39553;52.954;5.932;2022-12-29T09:23:37;9.30;99.90
53653;DHT22;39553;52.954;5.932;2022-12-29T09:26:03;9.30;99.90
53653;DHT22;39553;52.954;5.932;2022-12-29T09:28:30;9.20;99.90
53653;DHT22;39553;52.954;5.932;2022-12-29T09:30:57;9.00;99.90
53653;DHT22;39553;52.954;5.932;2022-12-29T09:33:23;8.80;99.90
53653;DHT22;39553;52.954;5.932;2022-12-29T09:35:54;8.80;99.90
53653;DHT22;39553;52.954;5.932;2022-12-29T09:38:20;8.80;99.90
53653;DHT22;39553;52.954;5.932;2022-12-29T09:41:26;8.90;99.90
53653;DHT22;39553;52.954;5.932;2022-12-29T09:43:56;7.70;99.90
53653;DHT22;39553;52.954;5.932;2022-12-29T09:46:32;8.90;99.90
53653;DHT22;39553;52.954;5.932;2022-12-29T09:51:48;8.90;99.90
53653;DHT22;39553;52.954;5.932;2022-12-29T09:54:30;8.90;99.90
53653;DHT22;39553;52.954;5.932;2022-12-29T09:56:58;8.50;99.90
53653;DHT22;39553;52.954;5.932;2022-12-29T09:59:31;8.70;99.90
53653;DHT22;39553;52.954;5.932;2022-12-29T10:04:47;8.40;99.90
53653;DHT22;39553;52.954;5.932;2022-12-29T10:24:10;8.20;99.90
53653;DHT22;39553;52.954;5.932;2022-12-29T10:26:42;7.50;99.90
53653;DHT22;39553;52.954;5.932;2022-12-29T10:29:28;8.10;99.90
53653;DHT22;39553;52.954;5.932;2022-12-29T10:34:50;8.20;99.90
53653;DHT22;39553;52.954;5.932;2022-12-29T10:40:54;8.30;99.90
53653;DHT22;39553;52.954;5.932;2022-12-29T10:43:34;8.30;99.90
53653;DHT22;39553;52.954;5.932;2022-12-29T10:46:07;8.30;99.90
53653;DHT22;39553;52.954;5.932;2022-12-29T10:48:35;9.00;99.90
53653;DHT22;39553;52.954;5.932;2022-12-29T10:51:04;8.50;99.90
53653;DHT22;39553;52.954;5.932;2022-12-29T10:53:46;8.50;99.90
53653;DHT22;39553;52.954;5.932;2022-12-29T10:56:29;8.70;99.90
53653;DHT22;39553;52.954;5.932;2022-12-29T10:58:59;8.90;99.90
53653;DHT22;39553;52.954;5.932;2022-12-29T11:01:38;9.40;99.90
53653;DHT22;39553;52.954;5.932;2022-12-29T11:06:51;8.80;99.90
53653;DHT22;39553;52.954;5.932;2022-12-29T11:09:32;8.80;99.90
53653;DHT22;39553;52.954;5.932;2022-12-29T11:11:59;8.90;99.90
53653;DHT22;39553;52.954;5.932;2022-12-29T11:14:30;9.10;99.90
53653;DHT22;39553;52.954;5.932;2022-12-29T11:16:58;9.30;99.90
53653;DHT22;39553;52.954;5.932;2022-12-29T11:19:29;9.40;99.90
53653;DHT22;39553;52.954;5.932;2022-12-29T11:22:21;9.40;99.90
53653;DHT22;39553;52.954;5.932;2022-12-29T11:24:49;9.60;99.90
53653;DHT22;39553;52.954;5.932;2022-12-29T11:27:24;9.60;99.90
53653;DHT22;39553;52.954;5.932;2022-12-29T11:29:51;9.50;99.90
53653;DHT22;39553;52.954;5.932;2022-12-29T11:32:20;9.40;99.90
53653;DHT22;39553;52.954;5.932;2022-12-29T11:34:47;9.40;99.90
53653;DHT22;39553;52.954;5.932;2022-12-29T11:37:32;9.30;99.90
53653;DHT22;39553;52.954;5.932;2022-12-29T11:40:04;9.30;99.90
53653;DHT22;39553;52.954;5.932;2022-12-29T11:45:16;9.30;99.90
53653;DHT22;39553;52.954;5.932;2022-12-29T11:47:48;9.30;99.90
53653;DHT22;39553;52.954;5.932;2022-12-29T11:50:21;9.50;99.90
53653;DHT22;39553;52.954;5.932;2022-12-29T11:52:51;9.30;99.90
53653;DHT22;39553;52.954;5.932;2022-12-29T11:55:26;9.40;99.90
53653;DHT22;39553;52.954;5.932;2022-12-29T11:57:53;9.70;99.90
53653;DHT22;39553;52.954;5.932;2022-12-29T12:00:22;10.20;99.90
53653;DHT22;39553;52.954;5.932;2022-12-29T12:03:22;10.20;99.90
53653;DHT22;39553;52.954;5.932;2022-12-29T12:06:01;9.90;99.90
53653;DHT22;39553;52.954;5.932;2022-12-29T12:08:56;9.70;99.90
53653;DHT22;39553;52.954;5.932;2022-12-29T12:16:43;9.40;99.90
53653;DHT22;39553;52.954;5.932;2022-12-29T12:21:46;9.40;99.90
53653;DHT22;39553;52.954;5.932;2022-12-29T12:27:18;9.30;99.90
53653;DHT22;39553;52.954;5.932;2022-12-29T12:30:07;9.30;99.90
53653;DHT22;39553;52.954;5.932;2022-12-29T12:32:40;9.20;99.90
53653;DHT22;39553;52.954;5.932;2022-12-29T12:38:17;9.10;99.90
53653;DHT22;39553;52.954;5.932;2022-12-29T12:41:05;9.10;99.90
53653;DHT22;39553;52.954;5.932;2022-12-29T13:00:15;9.30;99.90
53653;DHT22;39553;52.954;5.932;2022-12-29T13:03:11;9.30;99.90
53653;DHT22;39553;52.954;5.932;2022-12-29T13:14:25;9.00;99.90
53653;DHT22;39553;52.954;5.932;2022-12-29T13:19:54;8.80;99.90
53653;DHT22;39553;52.954;5.932;2022-12-29T13:22:48;8.80;99.90
53653;DHT22;39553;52.954;5.932;2022-12-29T13:33:30;9.10;99.90
53653;DHT22;39553;52.954;5.932;2022-12-29T13:36:04;9.20;99.90
53653;DHT22;39553;52.954;5.932;2022-12-29T13:41:04;9.10;99.90
53653;DHT22;39553;52.954;5.932;2022-12-29T13:43:33;9.10;99.90
53653;DHT22;39553;52.954;5.932;2022-12-29T13:46:07;9.10;99.90
53653;DHT22;39553;52.954;5.932;2022-12-29T13:48:58;9.10;99.90
53653;DHT22;39553;52.954;5.932;2022-12-29T13:51:23;9.00;99.90
53653;DHT22;39553;52.954;5.932;2022-12-29T13:54:00;8.90;99.90
53653;DHT22;39553;52.954;5.932;2022-12-29T14:01:44;8.80;99.90
53653;DHT22;39553;52.954;5.932;2022-12-29T14:04:21;8.80;99.90
53653;DHT22;39553;52.954;5.932;2022-12-29T14:06:59;9.40;99.90
53653;DHT22;39553;52.954;5.932;2022-12-29T14:12:20;8.70;99.90
53653;DHT22;39553;52.954;5.932;2022-12-29T14:14:47;8.60;99.90
53653;DHT22;39553;52.954;5.932;2022-12-29T14:17:20;8.70;99.90
53653;DHT22;39553;52.954;5.932;2022-12-29T14:19:46;8.60;99.90
53653;DHT22;39553;52.954;5.932;2022-12-29T14:22:26;8.60;99.90
53653;DHT22;39553;52.954;5.932;2022-12-29T14:24:52;8.60;99.90
53653;DHT22;39553;52.954;5.932;2022-12-29T14:29:46;8.60;99.90
53653;DHT22;39553;52.954;5.932;2022-12-29T14:35:11;8.50;99.90
53653;DHT22;39553;52.954;5.932;2022-12-29T14:37:46;8.50;99.90
53653;DHT22;39553;52.954;5.932;2022-12-29T14:40:23;8.50;99.90
53653;DHT22;39553;52.954;5.932;2022-12-29T14:42:55;8.50;99.90
53653;DHT22;39553;52.954;5.932;2022-12-29T14:45:30;8.60;99.90
53653;DHT22;39553;52.954;5.932;2022-12-29T14:47:59;8.30;99.90
53653;DHT22;39553;52.954;5.932;2022-12-29T14:50:42;8.50;99.90
53653;DHT22;39553;52.954;5.932;2022-12-29T14:53:45;8.60;99.90
53653;DHT22;39553;52.954;5.932;2022-12-29T14:56:14;8.50;99.90
53653;DHT22;39553;52.954;5.932;2022-12-29T14:59:08;8.40;99.90
53653;DHT22;39553;52.954;5.932;2022-12-29T15:01:46;9.30;99.90
53653;DHT22;39553;52.954;5.932;2022-12-29T15:06:46;8.30;99.90
53653;DHT22;39553;52.954;5.932;2022-12-29T15:09:30;8.30;99.90
53653;DHT22;39553;52.954;5.932;2022-12-29T15:12:25;8.30;99.90
53653;DHT22;39553;52.954;5.932;2022-12-29T15:14:57;8.70;99.90
53653;DHT22;39553;52.954;5.932;2022-12-29T15:19:49;9.00;99.90
53653;DHT22;39553;52.954;5.932;2022-12-29T15:22:15;8.30;99.90
53653;DHT22;39553;52.954;5.932;2022-12-29T15:24:42;8.30;99.90
53653;DHT22;39553;52.954;5.932;2022-12-29T15:27:28;8.30;99.90
53653;DHT22;39553;52.954;5.932;2022-12-29T15:30:00;8.30;99.90
53653;DHT22;39553;52.954;5.932;2022-12-29T15:32:28;8.30;99.90
53653;DHT22;39553;52.954;5.932;2022-12-29T15:34:56;8.20;99.90
53653;DHT22;39553;52.954;5.932;2022-12-29T15:37:43;8.30;99.90
53653;DHT22;39553;52.954;5.932;2022-12-29T15:40:31;8.30;99.90
53653;DHT22;39553;52.954;5.932;2022-12-29T15:45:44;8.20;99.90
53653;DHT22;39553;52.954;5.932;2022-12-29T15:48:20;8.20;99.90
53653;DHT22;39553;52.954;5.932;2022-12-29T15:50:47;8.10;99.90
53653;DHT22;39553;52.954;5.932;2022-12-29T15:53:27;8.50;99.90
53653;DHT22;39553;52.954;5.932;2022-12-29T15:56:01;8.10;99.90
53653;DHT22;39553;52.954;5.932;2022-12-29T15:58:31;8.00;99.90
53653;DHT22;39553;52.954;5.932;2022-12-29T16:01:15;8.00;99.90
53653;DHT22;39553;52.954;5.932;2022-12-29T16:03:42;8.00;99.90
53653;DHT22;39553;52.954;5.932;2022-12-29T16:06:35;7.80;99.90
53653;DHT22;39553;52.954;5.932;2022-12-29T16:09:06;7.50;99.90
53653;DHT22;39553;52.954;5.932;2022-12-29T16:11:38;7.30;99.90
53653;DHT22;39553;52.954;5.932;2022-12-29T16:14:28;7.30;99.90
53653;DHT22;39553;52.954;5.932;2022-12-29T16:17:01;7.30;99.90
53653;DHT22;39553;52.954;5.932;2022-12-29T16:19:33;7.20;99.90
53653;DHT22;39553;52.954;5.932;2022-12-29T16:22:01;7.20;99.90
53653;DHT22;39553;52.954;5.932;2022-12-29T16:24:31;7.20;99.90
53653;DHT22;39553;52.954;5.932;2022-12-29T16:29:29;7.10;99.90
53653;DHT22;39553;52.954;5.932;2022-12-29T16:31:57;7.10;99.90
53653;DHT22;39553;52.954;5.932;2022-12-29T16:34:33;7.10;99.90
53653;DHT22;39553;52.954;5.932;2022-12-29T16:37:33;7.10;99.90
53653;DHT22;39553;52.954;5.932;2022-12-29T16:42:48;7.20;99.90
53653;DHT22;39553;52.954;5.932;2022-12-29T16:50:31;7.20;99.90
53653;DHT22;39553;52.954;5.932;2022-12-29T16:52:58;7.20;99.90
53653;DHT22;39553;52.954;5.932;2022-12-29T16:55:25;7.30;99.90
53653;DHT22;39553;52.954;5.932;2022-12-29T16:57:53;7.30;99.90
53653;DHT22;39553;52.954;5.932;2022-12-29T17:00:24;8.40;99.90
53653;DHT22;39553;52.954;5.932;2022-12-29T17:02:52;7.20;99.90
53653;DHT22;39553;52.954;5.932;2022-12-29T17:05:19;7.20;99.90
53653;DHT22;39553;52.954;5.932;2022-12-29T17:07:45;7.20;99.90
53653;DHT22;39553;52.954;5.932;2022-12-29T17:10:11;7.20;99.90
53653;DHT22;39553;52.954;5.932;2022-12-29T17:12:40;7.20;99.90
53653;DHT22;39553;52.954;5.932;2022-12-29T17:15:18;7.20;99.90
53653;DHT22;39553;52.954;5.932;2022-12-29T17:17:48;7.20;99.90
53653;DHT22;39553;52.954;5.932;2022-12-29T17:20:18;7.20;99.90
53653;DHT22;39553;52.954;5.932;2022-12-29T17:22:45;7.20;99.90
53653;DHT22;39553;52.954;5.932;2022-12-29T17:25:18;7.20;99.90
53653;DHT22;39553;52.954;5.932;2022-12-29T17:28:11;7.20;99.90
53653;DHT22;39553;52.954;5.932;2022-12-29T17:30:33;7.30;99.90
53653;DHT22;39553;52.954;5.932;2022-12-29T17:33:08;7.30;99.90
53653;DHT22;39553;52.954;5.932;2022-12-29T17:35:39;7.30;99.90
53653;DHT22;39553;52.954;5.932;2022-12-29T17:38:24;7.30;99.90
53653;DHT22;39553;52.954;5.932;2022-12-29T17:40:52;7.40;99.90
53653;DHT22;39553;52.954;5.932;2022-12-29T17:43:18;7.40;99.90
53653;DHT22;39553;52.954;5.932;2022-12-29T17:45:48;7.30;99.90
53653;DHT22;39553;52.954;5.932;2022-12-29T17:48:16;7.40;99.90
53653;DHT22;39553;52.954;5.932;2022-12-29T17:50:47;7.30;99.90
53653;DHT22;39553;52.954;5.932;2022-12-29T17:53:16;6.40;99.90
53653;DHT22;39553;52.954;5.932;2022-12-29T17:55:44;7.40;99.90
53653;DHT22;39553;52.954;5.932;2022-12-29T17:58:16;7.30;99.90
53653;DHT22;39553;52.954;5.932;2022-12-29T18:00:43;7.40;99.90
53653;DHT22;39553;52.954;5.932;2022-12-29T18:03:23;7.40;99.90
53653;DHT22;39553;52.954;5.932;2022-12-29T18:05:50;7.40;99.90
53653;DHT22;39553;52.954;5.932;2022-12-29T18:08:16;7.40;99.90
53653;DHT22;39553;52.954;5.932;2022-12-29T18:10:42;7.40;99.90
53653;DHT22;39553;52.954;5.932;2022-12-29T18:13:25;7.40;99.90
53653;DHT22;39553;52.954;5.932;2022-12-29T18:15:52;7.40;99.90
53653;DHT22;39553;52.954;5.932;2022-12-29T18:18:20;7.40;99.90
53653;DHT22;39553;52.954;5.932;2022-12-29T18:20:48;7.80;99.90
53653;DHT22;39553;52.954;5.932;2022-12-29T18:23:26;7.40;99.90
53653;DHT22;39553;52.954;5.932;2022-12-29T18:26:01;7.40;99.90
53653;DHT22;39553;52.954;5.932;2022-12-29T18:28:28;7.30;99.90
53653;DHT22;39553;52.954;5.932;2022-12-29T18:30:55;7.30;99.90
53653;DHT22;39553;52.954;5.932;2022-12-29T18:33:25;7.30;99.90